Terminal Aerodrome Forecast
Issued by NWS Grand Forks, ND

Home | Current Version | Previous Version | Text Only | Print | Product List | Glossary Off
Versions: 1 2 3 4 5 6 7 8 9 10 11 12 13

000
FTUS43 KFGF 011734
TAFFAR
TAF
KFAR 011734Z 0118/0218 16006KT P6SM BKN150
     FM012300 16006KT P6SM VCTS SCT060CB BKN150
     FM020000 15005KT P6SM BKN150
     FM021300 34011KT P6SM BKN150
     FM021600 34015G23KT P6SM SCT090=

USA.gov is the U.S. government's official web portal to all federal, state and local government web resources and services.